Time;durP1;ratioP1;P1;durP2;ratioP2;P2;SDS_P1;SDS_P2;PMS_P1;PMS_P2;Temp;Humidity;BMP_temperature;BMP_pressure;BME280_temperature;BME280_humidity;BME280_pressure;Samples;Min_cycle;Max_cycle;Signal;HPM_P1;HPM_P2
2023/09/03 00:01:26;;;;;;;9.43;8.70;;;16.20;99.90;;;;;;5027079;28;20258;-80
2023/09/03 00:03:53;;;;;;;9.93;9.23;;;16.20;99.90;;;;;;5024341;28;20694;-81
2023/09/03 00:06:20;;;;;;;9.83;8.90;;;16.20;99.90;;;;;;5016700;28;20207;-81
2023/09/03 00:08:48;;;;;;;10.00;9.20;;;16.20;99.90;;;;;;5021384;28;20223;-80
2023/09/03 00:11:15;;;;;;;9.00;8.30;;;16.10;99.90;;;;;;5022455;28;20675;-80
2023/09/03 00:13:42;;;;;;;9.60;8.80;;;16.10;99.90;;;;;;5019196;28;20219;-80
2023/09/03 00:16:11;;;;;;;10.00;9.10;;;16.10;99.90;;;;;;5016803;28;20208;-80
2023/09/03 00:18:38;;;;;;;9.60;8.80;;;16.10;99.90;;;;;;5020511;28;20208;-80
2023/09/03 00:21:06;;;;;;;9.77;8.87;;;16.10;99.90;;;;;;5014155;28;20212;-81
2023/09/03 00:23:34;;;;;;;9.73;8.97;;;16.00;99.90;;;;;;5018928;28;20226;-80
2023/09/03 00:26:01;;;;;;;9.67;8.77;;;16.10;99.90;;;;;;5026313;28;20196;-80
2023/09/03 00:28:29;;;;;;;9.90;9.10;;;16.00;99.90;;;;;;5017373;28;20583;-81
2023/09/03 00:31:03;;;;;;;8.97;8.30;;;16.00;99.90;;;;;;5024023;28;20200;-80
2023/09/03 00:33:32;;;;;;;10.17;9.37;;;16.00;99.90;;;;;;5023816;28;20211;-80
2023/09/03 00:36:00;;;;;;;9.67;8.93;;;16.00;99.90;;;;;;5017319;28;20821;-80
2023/09/03 00:38:27;;;;;;;9.27;8.57;;;16.00;99.90;;;;;;5014698;28;20239;-80
2023/09/03 00:40:54;;;;;;;9.60;8.80;;;16.00;99.90;;;;;;5016110;28;20197;-81
2023/09/03 00:43:21;;;;;;;9.67;8.87;;;16.00;99.90;;;;;;5020331;28;20219;-80
2023/09/03 00:45:49;;;;;;;9.23;8.50;;;15.90;99.90;;;;;;5020636;28;20586;-81
2023/09/03 00:48:19;;;;;;;9.47;8.67;;;15.90;99.90;;;;;;5021305;28;20609;-81
2023/09/03 00:50:48;;;;;;;9.80;9.10;;;15.90;99.90;;;;;;5017602;28;20204;-81
2023/09/03 00:53:17;;;;;;;9.10;8.40;;;15.90;99.90;;;;;;5017523;28;20308;-80
2023/09/03 00:55:44;;;;;;;9.67;8.73;;;15.80;99.90;;;;;;5017045;28;20207;-80
2023/09/03 00:58:11;;;;;;;9.70;8.97;;;15.90;99.90;;;;;;5014242;28;20258;-80
2023/09/03 01:00:39;;;;;;;9.20;8.50;;;15.80;99.90;;;;;;5017426;28;20211;-81
2023/09/03 01:03:06;;;;;;;9.03;8.43;;;15.80;99.90;;;;;;5019989;28;20605;-80
2023/09/03 01:05:32;;;;;;;9.77;8.97;;;15.80;99.90;;;;;;5015531;28;20267;-80
2023/09/03 01:08:02;;;;;;;9.90;9.17;;;15.80;99.90;;;;;;5028818;28;20640;-80
2023/09/03 01:10:36;;;;;;;9.37;8.67;;;15.70;99.90;;;;;;5018499;28;20210;-81
2023/09/03 01:13:09;;;;;;;10.20;9.40;;;15.70;99.90;;;;;;5019381;28;20640;-81
2023/09/03 01:15:40;;;;;;;9.70;8.67;;;15.60;99.90;;;;;;5016740;28;20617;-80
2023/09/03 01:18:15;;;;;;;9.90;9.20;;;15.70;99.90;;;;;;5025576;28;20202;-80
2023/09/03 01:20:45;;;;;;;10.13;9.33;;;15.60;99.90;;;;;;5014807;28;20204;-81
2023/09/03 01:23:30;;;;;;;9.90;9.10;;;15.60;99.90;;;;;;5014668;28;20220;-81
2023/09/03 01:26:11;;;;;;;10.07;9.27;;;15.60;99.90;;;;;;5029602;28;20272;-80
2023/09/03 01:28:41;;;;;;;10.30;9.50;;;15.50;99.90;;;;;;5032190;28;20713;-79
2023/09/03 01:31:11;;;;;;;10.00;9.30;;;15.50;99.90;;;;;;5031081;28;20215;-81
2023/09/03 01:33:40;;;;;;;10.00;9.30;;;15.50;99.90;;;;;;5026969;28;20235;-80
2023/09/03 01:36:11;;;;;;;10.10;9.30;;;15.50;99.90;;;;;;5031105;28;20325;-81
2023/09/03 01:38:38;;;;;;;10.43;9.70;;;15.50;99.90;;;;;;5033318;28;20222;-80
2023/09/03 01:41:05;;;;;;;10.77;9.87;;;15.40;99.90;;;;;;5032412;28;20198;-80
2023/09/03 01:43:32;;;;;;;10.03;9.23;;;15.40;99.90;;;;;;5031349;28;20209;-80
2023/09/03 01:46:06;;;;;;;10.07;9.37;;;15.40;99.90;;;;;;5031924;28;20219;-80
2023/09/03 01:48:45;;;;;;;10.37;9.57;;;15.40;99.90;;;;;;5031274;28;20252;-80
2023/09/03 01:51:20;;;;;;;10.40;9.60;;;15.40;99.90;;;;;;5031279;28;20742;-80
2023/09/03 01:53:52;;;;;;;10.57;9.60;;;15.40;99.90;;;;;;5030914;28;20216;-81
2023/09/03 01:56:22;;;;;;;10.70;9.90;;;15.40;99.90;;;;;;5031017;28;20649;-80
2023/09/03 01:58:54;;;;;;;10.43;9.73;;;15.40;99.90;;;;;;5031162;28;20316;-80
2023/09/03 02:01:24;;;;;;;10.50;9.77;;;15.30;99.90;;;;;;5031301;28;20206;-80
2023/09/03 02:03:51;;;;;;;10.40;9.70;;;15.30;99.90;;;;;;5032534;28;20221;-80
2023/09/03 02:06:18;;;;;;;10.80;9.93;;;15.30;99.90;;;;;;5030924;28;20270;-80
2023/09/03 02:08:44;;;;;;;10.67;9.67;;;15.30;99.90;;;;;;5031077;28;20205;-78
2023/09/03 02:11:11;;;;;;;10.60;9.80;;;15.20;99.90;;;;;;5030898;28;20240;-81
2023/09/03 02:13:39;;;;;;;9.97;9.27;;;15.30;99.90;;;;;;5035306;28;20272;-81
2023/09/03 02:16:05;;;;;;;11.13;10.30;;;15.20;99.90;;;;;;5025672;28;20233;-80
2023/09/03 02:18:33;;;;;;;10.33;9.53;;;15.20;99.90;;;;;;5022399;28;20233;-80
2023/09/03 02:21:00;;;;;;;10.87;9.90;;;15.30;99.90;;;;;;5019293;28;20203;-81
2023/09/03 02:23:27;;;;;;;9.80;9.10;;;15.30;99.90;;;;;;5022851;28;20227;-81
2023/09/03 02:26:01;;;;;;;9.90;9.20;;;15.30;99.90;;;;;;5019107;28;20275;-80
2023/09/03 02:28:28;;;;;;;10.20;9.50;;;15.30;99.90;;;;;;5016237;28;20199;-81
2023/09/03 02:30:55;;;;;;;10.70;9.70;;;15.30;99.90;;;;;;5023370;28;20196;-80
2023/09/03 02:33:23;;;;;;;10.40;9.40;;;15.30;99.90;;;;;;5021377;28;20218;-79
2023/09/03 02:35:51;;;;;;;10.57;9.77;;;15.30;99.90;;;;;;5021880;28;20198;-80
2023/09/03 02:38:19;;;;;;;10.50;9.73;;;15.30;99.90;;;;;;5018330;28;20207;-80
2023/09/03 02:40:46;;;;;;;11.07;10.20;;;15.30;99.90;;;;;;5019608;28;20735;-80
2023/09/03 02:43:13;;;;;;;11.10;10.20;;;15.30;99.90;;;;;;5020404;28;20276;-80
2023/09/03 02:45:40;;;;;;;10.60;9.80;;;15.40;99.90;;;;;;5017676;28;20278;-80
2023/09/03 02:48:08;;;;;;;11.10;10.10;;;15.30;99.90;;;;;;5017676;28;20202;-80
2023/09/03 02:50:36;;;;;;;10.93;10.10;;;15.30;99.90;;;;;;5014801;28;20199;-79
2023/09/03 02:53:06;;;;;;;12.03;11.13;;;15.30;99.90;;;;;;5025891;28;20227;-80
2023/09/03 02:55:33;;;;;;;12.00;11.00;;;15.30;99.90;;;;;;5020572;28;20195;-79
2023/09/03 02:58:00;;;;;;;11.90;11.00;;;15.30;99.90;;;;;;5021060;28;20659;-80
2023/09/03 03:00:27;;;;;;;12.47;11.57;;;15.30;99.90;;;;;;5021046;28;20205;-78
2023/09/03 03:02:55;;;;;;;10.67;9.87;;;15.30;99.90;;;;;;5017017;28;20255;-78
2023/09/03 03:05:22;;;;;;;11.13;10.33;;;15.30;99.90;;;;;;5034382;28;20218;-79
2023/09/03 03:07:48;;;;;;;10.83;10.13;;;15.30;99.90;;;;;;5029752;28;20579;-78
2023/09/03 03:10:17;;;;;;;11.07;10.27;;;15.30;99.90;;;;;;5033604;28;20204;-78
2023/09/03 03:12:45;;;;;;;11.40;10.60;;;15.30;99.90;;;;;;5033592;28;20193;-79
2023/09/03 03:15:14;;;;;;;12.23;11.23;;;15.30;99.90;;;;;;5033790;28;20203;-79
2023/09/03 03:17:41;;;;;;;11.50;10.60;;;15.30;99.90;;;;;;5033243;28;20288;-79
2023/09/03 03:20:10;;;;;;;11.87;10.87;;;15.20;99.90;;;;;;5033629;28;20197;-78
2023/09/03 03:22:37;;;;;;;11.47;10.67;;;15.20;99.90;;;;;;5034079;28;20201;-79
2023/09/03 03:25:05;;;;;;;11.17;10.27;;;15.20;99.90;;;;;;5023745;28;20222;-79
2023/09/03 03:27:34;;;;;;;11.27;10.47;;;15.20;99.90;;;;;;5025892;28;20203;-78
2023/09/03 03:30:01;;;;;;;11.53;10.70;;;15.20;99.90;;;;;;5032986;28;20449;-78
2023/09/03 03:32:29;;;;;;;11.70;10.90;;;15.20;99.90;;;;;;5031768;28;20206;-78
2023/09/03 03:34:58;;;;;;;11.33;10.53;;;15.10;99.90;;;;;;5030042;28;20406;-78
2023/09/03 03:37:24;;;;;;;11.87;10.97;;;15.10;99.90;;;;;;5033347;28;20222;-79
2023/09/03 03:39:51;;;;;;;11.50;10.57;;;15.10;99.90;;;;;;5026888;28;20197;-79
2023/09/03 03:42:20;;;;;;;11.47;10.70;;;15.10;99.90;;;;;;5020126;28;20189;-78
2023/09/03 03:44:48;;;;;;;11.20;10.40;;;15.10;99.90;;;;;;5017810;28;20217;-77
2023/09/03 03:47:18;;;;;;;11.27;10.37;;;15.00;99.90;;;;;;5026271;28;20202;-82
2023/09/03 03:49:45;;;;;;;11.57;10.77;;;15.00;99.90;;;;;;5024625;28;20567;-78
2023/09/03 03:52:12;;;;;;;10.90;10.20;;;15.00;99.90;;;;;;5027271;28;20749;-79
2023/09/03 03:54:38;;;;;;;11.07;10.27;;;15.00;99.90;;;;;;5028260;28;20395;-77
2023/09/03 03:57:06;;;;;;;11.23;10.53;;;15.00;99.90;;;;;;5031996;28;20192;-78
2023/09/03 03:59:33;;;;;;;10.77;9.90;;;15.00;99.90;;;;;;5024008;28;20632;-77
2023/09/03 04:02:03;;;;;;;10.60;9.90;;;15.10;99.90;;;;;;5029484;28;20197;-76
2023/09/03 04:04:29;;;;;;;10.70;10.00;;;15.10;99.90;;;;;;5027672;28;20229;-77
2023/09/03 04:06:56;;;;;;;11.00;10.00;;;15.10;99.90;;;;;;5030409;28;20214;-75
2023/09/03 04:09:23;;;;;;;10.73;9.93;;;15.10;99.90;;;;;;5030147;28;20230;-77
2023/09/03 04:11:50;;;;;;;10.83;10.07;;;15.10;99.90;;;;;;5030112;28;20256;-77
2023/09/03 04:14:17;;;;;;;11.47;10.40;;;15.10;99.90;;;;;;5028594;28;20739;-77
2023/09/03 04:16:44;;;;;;;11.33;10.27;;;15.10;99.90;;;;;;5031175;28;20187;-77
2023/09/03 04:19:12;;;;;;;10.93;10.13;;;15.10;99.90;;;;;;5029980;28;20737;-76
2023/09/03 04:21:39;;;;;;;11.03;10.30;;;15.10;99.90;;;;;;5030041;28;20199;-76
2023/09/03 04:24:08;;;;;;;11.20;10.33;;;15.10;99.90;;;;;;5029674;28;20225;-77
2023/09/03 04:26:36;;;;;;;11.23;10.43;;;15.10;99.90;;;;;;5031703;28;20218;-77
2023/09/03 04:29:06;;;;;;;12.27;11.20;;;15.10;99.90;;;;;;5030926;28;20206;-77
2023/09/03 04:31:35;;;;;;;11.07;10.27;;;15.10;99.90;;;;;;5032074;28;20198;-77
2023/09/03 04:34:05;;;;;;;11.33;10.53;;;15.00;99.90;;;;;;5030899;28;20213;-77
2023/09/03 04:36:34;;;;;;;11.47;10.67;;;15.00;99.90;;;;;;5024152;28;20199;-77
2023/09/03 04:39:03;;;;;;;12.00;11.10;;;15.00;99.90;;;;;;5030806;28;20194;-77
2023/09/03 04:41:30;;;;;;;11.00;10.10;;;15.00;99.90;;;;;;5031548;28;20693;-77
2023/09/03 04:44:07;;;;;;;11.67;10.60;;;15.00;99.90;;;;;;5030723;28;20226;-78
2023/09/03 04:46:38;;;;;;;10.93;10.23;;;15.00;99.90;;;;;;5031077;28;20213;-78
2023/09/03 04:49:05;;;;;;;11.20;10.40;;;15.00;99.90;;;;;;5030878;28;20257;-77
2023/09/03 04:51:32;;;;;;;10.57;9.87;;;15.10;99.90;;;;;;5032381;28;20211;-77
2023/09/03 04:54:00;;;;;;;11.50;10.70;;;15.10;99.90;;;;;;5030838;28;20274;-77
2023/09/03 04:56:27;;;;;;;11.00;10.23;;;15.10;99.90;;;;;;5032392;28;20260;-77
2023/09/03 04:58:54;;;;;;;11.63;10.83;;;15.10;99.90;;;;;;5031066;28;20198;-77
2023/09/03 05:01:23;;;;;;;11.97;11.00;;;15.10;99.90;;;;;;5028920;28;20207;-78
2023/09/03 05:03:54;;;;;;;11.67;10.57;;;15.10;99.90;;;;;;5031582;28;20706;-77
2023/09/03 05:06:22;;;;;;;11.77;10.77;;;15.10;99.90;;;;;;5028430;28;20642;-77
2023/09/03 05:08:51;;;;;;;11.90;11.00;;;15.20;99.90;;;;;;5030856;28;20189;-77
2023/09/03 05:11:21;;;;;;;11.93;11.13;;;15.20;99.90;;;;;;5030571;28;20221;-77
2023/09/03 05:13:49;;;;;;;12.03;11.03;;;15.20;99.90;;;;;;5030856;28;20222;-77
2023/09/03 05:16:18;;;;;;;11.20;10.50;;;15.30;99.90;;;;;;5030215;28;20198;-77
2023/09/03 05:18:45;;;;;;;11.63;10.83;;;15.30;99.90;;;;;;5031539;28;20202;-77
2023/09/03 05:21:13;;;;;;;11.73;10.93;;;15.40;99.90;;;;;;5030166;28;20284;-77
2023/09/03 05:23:40;;;;;;;11.43;10.67;;;15.40;99.90;;;;;;5030857;28;20221;-77
2023/09/03 05:26:08;;;;;;;11.40;10.43;;;15.50;99.90;;;;;;5030231;28;20272;-78
2023/09/03 05:28:39;;;;;;;10.90;10.20;;;15.50;99.90;;;;;;5025581;28;20204;-78
2023/09/03 05:31:06;;;;;;;11.27;10.57;;;15.60;99.90;;;;;;5025918;28;20269;-77
2023/09/03 05:33:34;;;;;;;10.77;10.00;;;15.60;99.90;;;;;;5030738;28;20224;-77
2023/09/03 05:36:01;;;;;;;10.57;9.73;;;15.70;99.90;;;;;;5025459;28;20203;-77
2023/09/03 05:38:28;;;;;;;10.60;9.60;;;15.70;99.90;;;;;;5029931;28;20216;-77
2023/09/03 05:40:58;;;;;;;10.87;10.07;;;15.80;99.90;;;;;;5027455;28;20201;-77
2023/09/03 05:43:25;;;;;;;10.90;10.13;;;15.80;99.90;;;;;;5030943;28;20222;-78
2023/09/03 05:45:56;;;;;;;11.03;10.23;;;15.90;99.90;;;;;;5030391;28;20223;-77
2023/09/03 05:48:24;;;;;;;10.70;10.00;;;16.10;99.90;;;;;;5032154;28;20212;-77
2023/09/03 05:50:57;;;;;;;11.37;10.47;;;16.20;99.90;;;;;;5035287;28;20565;-77
2023/09/03 05:53:24;;;;;;;10.50;9.80;;;16.20;99.90;;;;;;5031538;28;20232;-77
2023/09/03 05:55:51;;;;;;;11.20;10.40;;;16.30;99.90;;;;;;5034711;28;20195;-77
2023/09/03 05:58:18;;;;;;;11.33;10.53;;;16.30;99.90;;;;;;5036134;28;20566;-77
2023/09/03 06:00:46;;;;;;;11.10;10.30;;;16.30;99.90;;;;;;5035043;28;20200;-78
2023/09/03 06:03:16;;;;;;;11.33;10.53;;;16.30;99.90;;;;;;5034695;28;20220;-80
2023/09/03 06:05:44;;;;;;;11.07;10.20;;;16.40;99.90;;;;;;5033125;28;20230;-79
2023/09/03 06:08:11;;;;;;;11.30;10.53;;;16.40;99.90;;;;;;5034301;28;20218;-79
2023/09/03 06:10:37;;;;;;;10.37;9.67;;;16.50;99.90;;;;;;5023054;28;20204;-79
2023/09/03 06:13:04;;;;;;;11.00;10.20;;;16.60;99.90;;;;;;5025954;28;20765;-80
2023/09/03 06:15:31;;;;;;;10.20;9.50;;;16.70;99.90;;;;;;5028473;28;20581;-77
2023/09/03 06:17:59;;;;;;;10.33;9.63;;;16.80;99.90;;;;;;5024594;28;20200;-79
2023/09/03 06:20:27;;;;;;;10.80;10.10;;;16.90;99.90;;;;;;5034218;28;20290;-79
2023/09/03 06:22:54;;;;;;;12.20;11.40;;;17.10;99.90;;;;;;5030586;28;20204;-80
2023/09/03 06:25:24;;;;;;;10.67;9.97;;;17.20;99.90;;;;;;5026854;28;20587;-82
2023/09/03 06:27:50;;;;;;;10.90;10.10;;;17.30;99.90;;;;;;5026176;28;20281;-79
2023/09/03 06:30:17;;;;;;;10.47;9.83;;;17.50;99.90;;;;;;5032221;28;20199;-79
2023/09/03 06:32:44;;;;;;;9.90;9.20;;;17.60;99.90;;;;;;5027187;28;20201;-78
2023/09/03 06:35:11;;;;;;;9.90;9.10;;;17.80;99.90;;;;;;5030224;28;20205;-76
2023/09/03 06:37:40;;;;;;;9.63;8.93;;;17.90;99.90;;;;;;5034796;28;20228;-78
2023/09/03 06:40:08;;;;;;;7.40;6.90;;;18.10;99.90;;;;;;5032795;28;20253;-78
2023/09/03 06:42:35;;;;;;;4.03;3.63;;;18.20;99.90;;;;;;5033707;28;20202;-78
2023/09/03 06:45:03;;;;;;;5.97;5.00;;;18.30;99.90;;;;;;5023736;28;20240;-77
2023/09/03 06:47:30;;;;;;;5.70;5.10;;;18.40;99.90;;;;;;5030494;28;20222;-76
2023/09/03 06:49:56;;;;;;;4.93;4.53;;;18.60;99.90;;;;;;5032401;28;20251;-75
2023/09/03 06:52:23;;;;;;;6.23;5.73;;;18.70;99.90;;;;;;5031131;28;20246;-76
2023/09/03 06:54:52;;;;;;;4.57;4.10;;;18.80;99.90;;;;;;5031861;28;20272;-76
2023/09/03 06:57:20;;;;;;;7.53;7.03;;;19.00;99.90;;;;;;5030886;28;20435;-76
2023/09/03 06:59:46;;;;;;;7.60;7.00;;;19.10;99.90;;;;;;5031398;28;20195;-76
2023/09/03 07:02:13;;;;;;;5.53;4.27;;;19.20;99.90;;;;;;5030010;28;20223;-76
2023/09/03 07:04:40;;;;;;;5.07;4.10;;;19.30;99.90;;;;;;5035284;28;20226;-79
2023/09/03 07:07:08;;;;;;;5.90;4.30;;;19.30;99.90;;;;;;5032205;28;20203;-76
2023/09/03 07:09:35;;;;;;;4.43;3.97;;;19.40;99.90;;;;;;5031197;28;20200;-76
2023/09/03 07:12:04;;;;;;;4.90;4.50;;;19.50;99.90;;;;;;5028415;28;20202;-76
2023/09/03 07:14:32;;;;;;;8.73;7.93;;;19.60;99.90;;;;;;5032758;28;20219;-76
2023/09/03 07:17:00;;;;;;;9.80;9.10;;;19.70;99.90;;;;;;5032107;28;20200;-76
2023/09/03 07:19:26;;;;;;;8.77;8.07;;;19.80;99.90;;;;;;5032029;28;20204;-77
2023/09/03 07:21:53;;;;;;;9.57;8.87;;;19.90;99.90;;;;;;5032087;28;20627;-76
2023/09/03 07:24:20;;;;;;;5.03;4.63;;;20.00;99.90;;;;;;5031691;28;20635;-77
2023/09/03 07:26:47;;;;;;;4.50;4.10;;;20.20;99.90;;;;;;5035727;28;20265;-79
2023/09/03 07:29:15;;;;;;;9.40;8.80;;;20.30;99.90;;;;;;5033125;28;20584;-79
2023/09/03 07:31:43;;;;;;;9.63;9.03;;;20.40;99.90;;;;;;5032385;28;20200;-77
2023/09/03 07:34:14;;;;;;;8.80;8.20;;;20.50;99.90;;;;;;5031327;28;20220;-81
2023/09/03 07:36:41;;;;;;;9.17;8.57;;;20.50;99.90;;;;;;5033305;28;20902;-77
2023/09/03 07:39:14;;;;;;;9.00;8.30;;;20.60;99.90;;;;;;5034108;28;20188;-78
2023/09/03 07:41:41;;;;;;;9.60;8.90;;;20.60;99.90;;;;;;5033627;28;20191;-77
2023/09/03 07:44:08;;;;;;;8.93;8.17;;;20.70;99.90;;;;;;5018232;28;20251;-77
2023/09/03 07:46:36;;;;;;;5.00;4.60;;;20.70;99.90;;;;;;5029931;28;20824;-78
2023/09/03 07:49:03;;;;;;;9.83;9.13;;;20.80;99.90;;;;;;5031751;28;20207;-77
2023/09/03 07:51:30;;;;;;;10.10;9.20;;;21.00;99.90;;;;;;5032567;28;20261;-77
2023/09/03 07:53:57;;;;;;;9.37;8.67;;;21.00;99.90;;;;;;5030956;28;20586;-77
2023/09/03 07:56:24;;;;;;;8.87;8.23;;;21.20;99.90;;;;;;5030924;28;20192;-77
2023/09/03 07:58:51;;;;;;;8.50;7.90;;;21.30;99.90;;;;;;5027406;28;20211;-77
2023/09/03 08:01:19;;;;;;;8.97;8.27;;;21.40;99.90;;;;;;5027717;28;20196;-77
2023/09/03 08:03:49;;;;;;;8.83;8.13;;;21.60;99.90;;;;;;5025986;28;20224;-82
2023/09/03 08:06:16;;;;;;;8.07;7.47;;;21.70;99.90;;;;;;5032946;28;20560;-77
2023/09/03 08:08:44;;;;;;;7.10;6.60;;;21.80;99.90;;;;;;5032585;28;20657;-77
2023/09/03 08:11:11;;;;;;;8.33;7.80;;;22.10;99.90;;;;;;5031372;28;20207;-79
2023/09/03 08:13:38;;;;;;;9.23;8.37;;;22.30;99.90;;;;;;5031587;28;20726;-79
2023/09/03 08:16:05;;;;;;;6.33;4.07;;;22.50;99.90;;;;;;5031621;28;20204;-79
2023/09/03 08:18:31;;;;;;;7.97;7.47;;;22.70;99.90;;;;;;5028992;28;20251;-79
2023/09/03 08:21:00;;;;;;;9.03;8.33;;;22.90;99.90;;;;;;5033372;28;20219;-79
2023/09/03 08:23:28;;;;;;;7.70;7.20;;;23.10;99.90;;;;;;5033755;28;20235;-79
2023/09/03 08:25:54;;;;;;;10.33;9.53;;;22.90;99.90;;;;;;5031772;28;20219;-79
2023/09/03 08:28:21;;;;;;;10.20;9.50;;;22.90;99.90;;;;;;5032481;28;20302;-79
2023/09/03 08:30:48;;;;;;;8.83;8.23;;;23.00;99.90;;;;;;5028000;28;20192;-79
2023/09/03 08:33:15;;;;;;;9.10;8.40;;;23.20;99.90;;;;;;5031664;28;20666;-79
2023/09/03 08:35:42;;;;;;;10.63;9.63;;;23.60;99.90;;;;;;5031825;28;20200;-79
2023/09/03 08:38:10;;;;;;;4.50;4.07;;;24.00;99.90;;;;;;5020995;28;20204;-79
2023/09/03 08:40:37;;;;;;;4.50;3.90;;;24.00;99.90;;;;;;5031741;28;20200;-79
2023/09/03 08:43:07;;;;;;;7.87;7.20;;;24.10;99.90;;;;;;5032725;28;20207;-80
2023/09/03 08:45:38;;;;;;;7.40;6.80;;;24.30;99.90;;;;;;5033749;28;20210;-80
2023/09/03 08:48:05;;;;;;;6.80;6.30;;;24.70;99.90;;;;;;5031486;28;20231;-79
2023/09/03 08:50:33;;;;;;;7.33;6.87;;;24.90;99.90;;;;;;5034617;28;20200;-80
2023/09/03 08:53:01;;;;;;;7.40;6.80;;;25.30;99.90;;;;;;5028566;28;20216;-79
2023/09/03 08:55:33;;;;;;;9.37;8.77;;;25.40;99.90;;;;;;5030950;28;20211;-80
2023/09/03 08:58:00;;;;;;;7.20;6.60;;;25.30;99.90;;;;;;5024579;28;20200;-80
2023/09/03 09:00:27;;;;;;;3.80;3.50;;;25.30;99.90;;;;;;5032208;28;20203;-78
2023/09/03 09:03:03;;;;;;;6.83;3.53;;;25.60;99.90;;;;;;5030950;28;20212;-82
2023/09/03 09:05:30;;;;;;;4.53;4.03;;;25.70;99.90;;;;;;5028271;28;20203;-79
2023/09/03 09:07:57;;;;;;;7.40;6.70;;;25.80;99.90;;;;;;5025409;28;20223;-80
2023/09/03 09:10:31;;;;;;;6.10;5.50;;;26.00;99.90;;;;;;5022621;28;20682;-78
2023/09/03 09:13:05;;;;;;;8.67;7.40;;;26.30;99.90;;;;;;5024591;28;20219;-80
2023/09/03 09:15:31;;;;;;;7.73;7.23;;;26.60;99.90;;;;;;5023385;28;20223;-79
2023/09/03 09:17:58;;;;;;;7.53;7.03;;;26.50;99.90;;;;;;5032548;28;20180;-82
2023/09/03 09:20:26;;;;;;;7.23;6.63;;;26.60;99.90;;;;;;5027537;28;20278;-82
2023/09/03 09:22:53;;;;;;;9.27;8.57;;;26.60;99.90;;;;;;5029871;28;20226;-80
2023/09/03 09:25:31;;;;;;;9.13;8.53;;;26.60;99.90;;;;;;5032953;28;20191;-82
2023/09/03 09:28:10;;;;;;;7.90;7.37;;;26.70;99.90;;;;;;5026656;28;20215;-81
2023/09/03 09:34:26;;;;;;;8.43;7.83;;;26.80;99.90;;;;;;5027459;28;20262;-79
2023/09/03 09:36:54;;;;;;;8.70;8.00;;;26.90;99.90;;;;;;5031880;28;20199;-80
2023/09/03 09:39:25;;;;;;;8.63;8.03;;;26.90;99.90;;;;;;5031597;28;20200;-80
2023/09/03 09:42:12;;;;;;;7.93;7.43;;;27.00;99.90;;;;;;5031134;28;20613;-81
2023/09/03 09:45:02;;;;;;;8.03;7.43;;;26.90;99.90;;;;;;5032407;28;20216;-81
2023/09/03 09:47:29;;;;;;;8.23;7.63;;;27.00;99.90;;;;;;5024451;28;20215;-81
2023/09/03 09:50:02;;;;;;;8.87;8.20;;;27.00;99.90;;;;;;5033888;28;20196;-80
2023/09/03 10:03:22;;;;;;;;;;;;;;;;;;;;;
2023/09/03 10:09:14;;;;;;;7.57;6.97;;;26.60;99.90;;;;;;4951838;28;20270;-80
2023/09/03 10:11:42;;;;;;;8.40;7.70;;;26.40;99.90;;;;;;4953654;28;20210;-83
2023/09/03 10:14:08;;;;;;;8.30;7.50;;;26.40;99.90;;;;;;4960282;28;20210;-81
2023/09/03 10:16:36;;;;;;;7.73;7.10;;;26.30;99.90;;;;;;4954841;28;20206;-83
2023/09/03 10:19:04;;;;;;;4.93;4.50;;;26.20;99.90;;;;;;4990504;28;20218;-80
2023/09/03 10:21:33;;;;;;;5.03;4.63;;;26.00;99.90;;;;;;4983836;28;20205;-82
2023/09/03 10:24:00;;;;;;;5.40;4.77;;;26.30;99.90;;;;;;4974035;28;20653;-80
2023/09/03 10:26:35;;;;;;;4.40;4.07;;;26.20;99.90;;;;;;4975905;28;20225;-82
2023/09/03 10:29:04;;;;;;;7.50;7.00;;;26.00;99.90;;;;;;4968985;28;20279;-79
2023/09/03 10:31:32;;;;;;;6.30;5.70;;;25.90;99.90;;;;;;4974433;28;20202;-82
2023/09/03 10:33:59;;;;;;;4.13;3.73;;;25.50;99.90;;;;;;4978102;28;20198;-82
2023/09/03 10:36:26;;;;;;;7.43;6.93;;;25.30;99.90;;;;;;4981861;28;20202;-79
2023/09/03 10:38:53;;;;;;;7.30;6.70;;;25.40;99.90;;;;;;4976679;28;20284;-81
2023/09/03 10:41:21;;;;;;;5.90;5.40;;;25.60;99.90;;;;;;4969179;28;20197;-79
2023/09/03 10:43:51;;;;;;;6.00;5.57;;;25.70;99.90;;;;;;4972726;28;20624;-82
2023/09/03 10:46:18;;;;;;;6.63;6.07;;;25.60;99.90;;;;;;4969199;28;20274;-80
2023/09/03 10:48:53;;;;;;;4.03;3.80;;;25.50;99.90;;;;;;4973364;28;20382;-82
2023/09/03 10:51:32;;;;;;;2.70;2.50;;;25.50;99.90;;;;;;4976512;28;20201;-80
2023/09/03 10:54:15;;;;;;;3.70;3.40;;;25.50;99.90;;;;;;4974231;28;20552;-81
2023/09/03 10:57:16;;;;;;;4.93;4.60;;;25.70;99.90;;;;;;4973412;28;20213;-79
2023/09/03 11:00:09;;;;;;;4.87;4.57;;;25.60;99.90;;;;;;4976041;28;20280;-80
2023/09/03 11:02:38;;;;;;;4.97;4.57;;;25.50;99.90;;;;;;4977425;28;20623;-78
2023/09/03 11:05:13;;;;;;;5.87;5.47;;;25.40;99.90;;;;;;4971562;28;20720;-79
2023/09/03 11:07:40;;;;;;;6.00;5.60;;;25.50;99.90;;;;;;4983312;28;20644;-79
2023/09/03 11:10:44;;;;;;;5.50;5.10;;;25.50;99.90;;;;;;4974522;28;20201;-79
2023/09/03 11:13:12;;;;;;;4.40;4.00;;;25.50;99.90;;;;;;4982203;28;20204;-79
2023/09/03 11:15:51;;;;;;;3.70;3.40;;;25.60;99.90;;;;;;4976012;28;20665;-80
2023/09/03 11:18:20;;;;;;;3.50;3.27;;;25.80;99.90;;;;;;4976458;28;20218;-81
2023/09/03 11:20:47;;;;;;;4.90;4.50;;;26.00;99.90;;;;;;4975745;28;20296;-81
2023/09/03 11:23:15;;;;;;;5.97;5.57;;;26.10;99.90;;;;;;4975682;28;20198;-83
2023/09/03 11:25:42;;;;;;;6.00;5.60;;;26.00;99.90;;;;;;4980073;28;20253;-83
2023/09/03 11:28:11;;;;;;;6.07;5.67;;;25.80;99.90;;;;;;4975241;28;20236;-83
2023/09/03 11:30:40;;;;;;;5.57;5.23;;;25.80;99.90;;;;;;4976045;28;20194;-82
2023/09/03 11:33:08;;;;;;;3.70;3.40;;;26.00;99.90;;;;;;4987285;28;20198;-82
2023/09/03 11:35:44;;;;;;;3.57;3.30;;;25.90;99.90;;;;;;4980596;28;20260;-84
2023/09/03 11:38:11;;;;;;;4.00;3.70;;;25.90;99.90;;;;;;4985186;28;20394;-83
2023/09/03 11:40:39;;;;;;;3.43;3.20;;;25.90;99.90;;;;;;4975997;28;20202;-83
2023/09/03 11:43:08;;;;;;;3.80;3.60;;;26.00;99.90;;;;;;4973191;28;20337;-85
2023/09/03 11:45:35;;;;;;;3.80;3.60;;;25.80;99.90;;;;;;4975695;28;20652;-83
2023/09/03 11:48:06;;;;;;;4.20;3.90;;;26.00;99.90;;;;;;4973742;28;20229;-83
2023/09/03 11:50:33;;;;;;;3.50;3.30;;;26.10;99.90;;;;;;4975948;28;20578;-80
2023/09/03 11:53:04;;;;;;;5.23;4.93;;;26.10;99.90;;;;;;4974502;28;20683;-80
2023/09/03 11:55:34;;;;;;;4.97;4.60;;;26.10;99.90;;;;;;4975190;28;20255;-77
2023/09/03 11:58:03;;;;;;;4.50;4.20;;;26.00;99.90;;;;;;4978868;28;20213;-78
2023/09/03 12:00:31;;;;;;;5.00;4.60;;;25.80;99.90;;;;;;4977704;28;20269;-77
2023/09/03 12:02:59;;;;;;;5.57;5.27;;;25.90;99.90;;;;;;4976201;28;20209;-75
2023/09/03 12:05:28;;;;;;;5.43;5.03;;;25.80;99.90;;;;;;4975496;28;20206;-75
2023/09/03 12:08:00;;;;;;;5.70;5.40;;;25.80;99.90;;;;;;4972024;28;20225;-75
2023/09/03 12:10:26;;;;;;;5.80;5.40;;;25.70;99.90;;;;;;4970388;28;20205;-74
2023/09/03 12:12:53;;;;;;;5.07;4.67;;;25.80;99.90;;;;;;4974085;28;20229;-75
2023/09/03 12:15:21;;;;;;;5.83;5.43;;;25.70;99.90;;;;;;4975840;28;20202;-74
2023/09/03 12:17:49;;;;;;;5.60;5.30;;;25.70;99.90;;;;;;4974074;28;20229;-75
2023/09/03 12:20:33;;;;;;;5.80;5.40;;;25.80;99.90;;;;;;4975656;28;20224;-75
2023/09/03 12:23:08;;;;;;;5.63;5.23;;;25.60;99.90;;;;;;4991476;28;20217;-75
2023/09/03 12:25:35;;;;;;;5.40;5.00;;;25.70;99.90;;;;;;4974516;28;20193;-77
2023/09/03 12:28:04;;;;;;;5.60;5.30;;;25.70;99.90;;;;;;4985261;28;20245;-76
2023/09/03 12:30:55;;;;;;;5.20;4.90;;;25.70;99.90;;;;;;4979976;28;20197;-78
2023/09/03 12:33:23;;;;;;;5.40;5.10;;;25.80;99.90;;;;;;4977968;28;20206;-78
2023/09/03 12:36:11;;;;;;;5.30;5.00;;;25.80;99.90;;;;;;4978317;28;20230;-78
2023/09/03 12:38:57;;;;;;;5.40;5.10;;;25.80;99.90;;;;;;4977225;28;20294;-77
2023/09/03 12:41:25;;;;;;;5.23;4.93;;;25.60;99.90;;;;;;4977301;28;20209;-77
2023/09/03 12:43:53;;;;;;;5.50;5.10;;;25.50;99.90;;;;;;4980367;28;20206;-77
2023/09/03 12:46:20;;;;;;;5.40;5.00;;;25.70;99.90;;;;;;4976252;28;20252;-77
2023/09/03 12:48:47;;;;;;;5.60;5.20;;;25.80;99.90;;;;;;4977811;28;20233;-78
2023/09/03 12:51:16;;;;;;;5.90;5.30;;;25.80;99.90;;;;;;4977048;28;20205;-77
2023/09/03 12:53:44;;;;;;;5.40;5.10;;;25.70;99.90;;;;;;4976904;28;20202;-78
2023/09/03 12:56:11;;;;;;;5.90;5.50;;;25.60;99.90;;;;;;4975769;28;20202;-77
2023/09/03 12:58:39;;;;;;;5.80;5.30;;;25.80;99.90;;;;;;4976413;28;20253;-77
2023/09/03 13:01:07;;;;;;;5.70;5.30;;;25.80;99.90;;;;;;4976756;28;20232;-77
2023/09/03 13:03:34;;;;;;;5.70;5.20;;;25.80;99.90;;;;;;4975339;28;20213;-79
2023/09/03 13:06:00;;;;;;;4.10;3.90;;;25.80;99.90;;;;;;4974765;28;20661;-75
2023/09/03 13:08:29;;;;;;;4.00;3.80;;;25.90;99.90;;;;;;4975421;28;20233;-75